Time;durP1;ratioP1;P1;durP2;ratioP2;P2;SDS_P1;SDS_P2;PMS_P1;PMS_P2;Temp;Humidity;BMP_temperature;BMP_pressure;BME280_temperature;BME280_humidity;BME280_pressure;Samples;Min_cycle;Max_cycle;Signal;HPM_P1;HPM_P2
2021/04/28 00:01:28;;;;;;;8.15;4.13;;;;;;;4.71;53.07;99480.44;10592344;28;20558;-71
2021/04/28 00:06:29;;;;;;;4.50;3.88;;;;;;;4.57;53.29;99482.44;10591866;28;20053;-70
2021/04/28 00:11:30;;;;;;;8.43;3.58;;;;;;;4.18;53.98;99472.59;10592139;28;20122;-71
2021/04/28 00:16:33;;;;;;;5.43;4.10;;;;;;;4.43;53.34;99464.44;10593072;28;20036;-71
2021/04/28 00:21:34;;;;;;;4.30;3.90;;;;;;;4.29;53.21;99464.63;10592119;28;20471;-70
2021/04/28 00:26:36;;;;;;;6.95;4.63;;;;;;;4.27;52.93;99458.59;10591836;28;20042;-70
2021/04/28 00:31:37;;;;;;;5.20;3.78;;;;;;;4.37;52.44;99456.72;10592608;28;20547;-70
2021/04/28 00:36:38;;;;;;;5.15;3.58;;;;;;;4.41;51.90;99451.44;10574233;28;20036;-71
2021/04/28 00:41:42;;;;;;;5.32;4.20;;;;;;;4.55;51.10;99452.06;10591138;28;20075;-71
2021/04/28 00:46:45;;;;;;;6.68;3.92;;;;;;;4.60;51.01;99453.72;10591921;28;20036;-71
2021/04/28 00:51:46;;;;;;;4.65;3.92;;;;;;;4.49;51.05;99440.91;10592010;28;20035;-70
2021/04/28 00:56:47;;;;;;;5.75;4.03;;;;;;;4.37;50.94;99444.56;10571929;28;20477;-70
2021/04/28 01:01:49;;;;;;;7.05;4.40;;;;;;;4.74;50.27;99438.75;10589847;28;20066;-71
2021/04/28 01:06:54;;;;;;;9.65;4.05;;;;;;;4.48;50.44;99437.44;10555517;28;20036;-71
2021/04/28 01:11:56;;;;;;;7.68;4.18;;;;;;;4.50;50.37;99427.84;10590973;28;20085;-70
2021/04/28 01:16:58;;;;;;;5.32;3.58;;;;;;;4.17;51.29;99434.47;10590009;28;20039;-70
2021/04/28 01:22:01;;;;;;;5.20;3.53;;;;;;;4.14;51.23;99429.31;10592700;28;20039;-70
2021/04/28 01:27:11;;;;;;;5.18;4.05;;;;;;;4.24;51.51;99427.41;10590235;28;20082;-71
2021/04/28 01:32:17;;;;;;;4.72;3.72;;;;;;;3.96;51.97;99425.25;10571980;28;20073;-70
2021/04/28 01:37:20;;;;;;;6.75;4.00;;;;;;;3.92;51.28;99415.75;10591731;28;20044;-70
2021/04/28 01:42:23;;;;;;;4.97;3.63;;;;;;;4.25;51.05;99416.13;10572865;28;20051;-72
2021/04/28 01:47:25;;;;;;;4.15;3.47;;;;;;;4.36;50.31;99405.56;10591820;28;20043;-70
2021/04/28 01:52:30;;;;;;;6.50;4.25;;;;;;;4.25;50.51;99405.72;10573006;28;20455;-71
2021/04/28 01:57:34;;;;;;;5.28;4.18;;;;;;;4.23;50.66;99404.91;10571870;28;20047;-71
2021/04/28 02:02:50;;;;;;;5.22;4.03;;;;;;;4.33;49.94;99398.66;10590201;28;20036;-71
2021/04/28 02:07:54;;;;;;;7.93;4.55;;;;;;;4.08;50.90;99386.94;10589674;28;20047;-71
2021/04/28 02:12:56;;;;;;;4.50;3.25;;;;;;;4.02;50.45;99385.28;10570976;28;20122;-70
2021/04/28 02:18:05;;;;;;;4.15;3.60;;;;;;;4.29;49.90;99376.16;10589329;28;20208;-71
2021/04/28 02:23:14;;;;;;;5.95;4.05;;;;;;;4.36;49.48;99380.41;10572216;28;20126;-72
2021/04/28 02:28:15;;;;;;;6.63;3.28;;;;;;;4.37;49.23;99376.91;10572798;28;20547;-71
2021/04/28 02:33:29;;;;;;;5.75;4.25;;;;;;;4.37;48.89;99369.09;10570196;28;20409;-71
2021/04/28 02:39:20;;;;;;;6.28;3.63;;;;;;;4.32;49.48;99368.31;10587679;28;20044;-71
2021/04/28 02:44:26;;;;;;;5.68;3.80;;;;;;;3.90;50.62;99360.34;10571181;28;20093;-70
2021/04/28 02:49:28;;;;;;;5.32;4.25;;;;;;;3.87;51.04;99362.97;10587624;28;20039;-71
2021/04/28 02:54:39;;;;;;;4.60;3.83;;;;;;;3.47;51.93;99365.31;10569656;28;20058;-71
2021/04/28 02:59:45;;;;;;;5.30;3.85;;;;;;;3.32;52.24;99366.38;10568770;28;20051;-71
2021/04/28 03:04:50;;;;;;;4.85;4.35;;;;;;;3.65;52.37;99361.59;10570303;28;20148;-71
2021/04/28 03:10:31;;;;;;;6.22;4.43;;;;;;;3.97;52.07;99354.16;10416813;28;20049;-71
2021/04/28 03:15:34;;;;;;;10.05;4.57;;;;;;;3.54;52.37;99352.22;10401814;28;20120;-71
2021/04/28 03:20:41;;;;;;;7.63;4.93;;;;;;;3.37;52.98;99351.59;10402343;28;20049;-70
2021/04/28 03:25:43;;;;;;;9.60;4.80;;;;;;;3.39;53.22;99351.56;10401832;28;20054;-71
2021/04/28 03:30:46;;;;;;;8.25;5.28;;;;;;;3.05;53.96;99362.38;10421934;28;20041;-70
2021/04/28 03:35:48;;;;;;;10.13;5.28;;;;;;;2.91;53.94;99364.28;10425216;28;20058;-70
2021/04/28 03:41:07;;;;;;;7.22;5.38;;;;;;;3.03;54.95;99364.13;10533970;28;20390;-70
2021/04/28 03:46:09;;;;;;;5.93;5.03;;;;;;;2.89;55.40;99361.69;10577499;28;20046;-71
2021/04/28 03:51:20;;;;;;;11.32;6.20;;;;;;;3.13;54.67;99352.75;10579016;28;20047;-71
2021/04/28 03:56:41;;;;;;;9.13;6.13;;;;;;;3.25;53.74;99354.34;10595518;28;20040;-71
2021/04/28 04:01:43;;;;;;;7.35;5.20;;;;;;;3.32;54.00;99363.78;10577873;28;20039;-71
2021/04/28 04:06:44;;;;;;;10.70;5.82;;;;;;;3.02;54.63;99363.28;10595360;28;20119;-71
2021/04/28 04:12:04;;;;;;;8.15;5.80;;;;;;;2.90;55.51;99367.75;10594955;28;20131;-72
2021/04/28 04:17:23;;;;;;;12.13;6.18;;;;;;;2.90;55.60;99372.94;10593497;28;20032;-71
2021/04/28 04:22:39;;;;;;;8.25;6.45;;;;;;;2.92;55.37;99372.06;10575995;28;20101;-72
2021/04/28 04:27:56;;;;;;;9.57;5.07;;;;;;;2.91;55.28;99365.13;10592715;28;20039;-70
2021/04/28 04:33:19;;;;;;;13.63;6.25;;;;;;;3.22;55.00;99377.75;10576160;28;20294;-71
2021/04/28 04:38:38;;;;;;;7.60;6.78;;;;;;;3.22;54.56;99367.34;10592939;28;20043;-71
2021/04/28 04:44:04;;;;;;;9.02;6.53;;;;;;;3.26;55.21;99371.63;10573774;28;20468;-71
2021/04/28 04:49:14;;;;;;;8.52;6.57;;;;;;;3.35;54.65;99368.91;10592302;28;20224;-71
2021/04/28 04:54:15;;;;;;;9.73;7.38;;;;;;;3.45;54.09;99372.25;10573690;28;20039;-71
2021/04/28 04:59:16;;;;;;;8.25;7.15;;;;;;;3.57;54.30;99364.28;10592099;28;20384;-70
2021/04/28 05:04:18;;;;;;;8.00;6.68;;;;;;;3.78;53.69;99365.72;10591269;28;20126;-71
2021/04/28 05:09:22;;;;;;;6.75;5.65;;;;;;;4.05;52.94;99365.28;10590642;28;20051;-71
2021/04/28 05:14:23;;;;;;;8.73;7.10;;;;;;;4.22;51.81;99354.59;10573277;28;20047;-70
2021/04/28 05:19:24;;;;;;;9.43;5.85;;;;;;;4.64;50.31;99348.66;10568718;22;20040;-71
2021/04/28 05:24:26;;;;;;;7.70;6.15;;;;;;;5.19;48.03;99347.59;10544051;28;20040;-70
2021/04/28 05:29:41;;;;;;;10.07;5.47;;;;;;;5.59;47.03;99349.34;10546233;28;20136;-70
2021/04/28 05:34:43;;;;;;;7.57;5.60;;;;;;;5.73;47.14;99347.25;10545612;28;20043;-70
2021/04/28 05:39:46;;;;;;;6.45;5.80;;;;;;;5.56;47.08;99342.41;10544682;28;20059;-72
2021/04/28 05:44:48;;;;;;;10.25;5.57;;;;;;;5.82;45.94;99341.84;10545020;28;20040;-71
2021/04/28 05:49:50;;;;;;;11.07;5.63;;;;;;;6.63;44.67;99333.72;10545268;28;20094;-71
2021/04/28 05:54:51;;;;;;;13.32;5.40;;;;;;;6.99;43.82;99324.88;10544519;28;20040;-71
2021/04/28 06:00:08;;;;;;;8.38;5.85;;;;;;;7.67;42.92;99323.72;10545096;28;20077;-73
2021/04/28 06:05:15;;;;;;;5.82;5.18;;;;;;;8.11;42.34;99318.84;10542482;28;20036;-72
2021/04/28 06:10:16;;;;;;;6.53;5.70;;;;;;;8.79;39.93;99304.28;10542163;28;20127;-72
2021/04/28 06:15:18;;;;;;;8.95;5.45;;;;;;;9.22;37.84;99307.94;10543703;28;20111;-72
2021/04/28 06:20:19;;;;;;;6.28;5.35;;;;;;;9.80;36.70;99300.44;10542982;28;20067;-71
2021/04/28 06:25:21;;;;;;;9.18;6.45;;;;;;;10.06;37.28;99299.38;10543235;28;20069;-72
2021/04/28 06:30:22;;;;;;;9.20;6.00;;;;;;;10.15;37.21;99280.59;10542935;28;20113;-72
2021/04/28 06:35:26;;;;;;;12.18;5.75;;;;;;;10.68;36.81;99290.59;10543211;28;20036;-72
2021/04/28 06:40:28;;;;;;;13.63;5.60;;;;;;;10.85;36.11;99277.56;10543924;28;20478;-71
2021/04/28 06:45:29;;;;;;;7.18;4.97;;;;;;;10.86;35.42;99263.50;10542421;28;20485;-72
2021/04/28 06:50:30;;;;;;;7.85;6.43;;;;;;;11.04;37.11;99271.47;10541188;28;20055;-72
2021/04/28 06:55:32;;;;;;;7.60;6.40;;;;;;;11.14;37.37;99271.91;10540863;28;20438;-73
2021/04/28 07:00:33;;;;;;;7.50;6.60;;;;;;;11.40;35.87;99270.69;10543426;28;20048;-74
2021/04/28 07:05:34;;;;;;;6.63;6.03;;;;;;;11.53;37.10;99280.56;10540557;28;20048;-74
2021/04/28 07:10:36;;;;;;;7.78;6.97;;;;;;;11.69;36.52;99264.88;10544320;28;20048;-74
2021/04/28 07:15:42;;;;;;;9.00;7.40;;;;;;;11.90;35.70;99260.34;10544249;28;20138;-73
2021/04/28 07:20:43;;;;;;;8.75;7.85;;;;;;;12.05;37.23;99256.13;10544286;28;20042;-73
2021/04/28 07:25:44;;;;;;;10.15;7.68;;;;;;;12.03;36.98;99252.69;10543120;28;20099;-74
2021/04/28 07:30:46;;;;;;;13.27;8.02;;;;;;;12.28;37.39;99253.19;10543474;28;20519;-74
2021/04/28 07:35:47;;;;;;;8.88;7.97;;;;;;;12.42;37.22;99246.34;10542748;28;20036;-75
2021/04/28 07:40:49;;;;;;;9.95;8.90;;;;;;;12.83;37.66;99250.28;10541596;28;20052;-74
2021/04/28 07:45:57;;;;;;;9.50;8.13;;;;;;;13.06;37.03;99246.41;10542117;28;20032;-74
2021/04/28 07:51:01;;;;;;;9.88;9.07;;;;;;;13.13;37.23;99245.13;10534101;28;20048;-74
2021/04/28 07:56:02;;;;;;;12.02;10.27;;;;;;;13.37;37.36;99250.91;10585300;28;20044;-75
2021/04/28 08:01:04;;;;;;;12.48;8.55;;;;;;;13.70;37.13;99249.91;10566185;28;20048;-74
2021/04/28 08:06:05;;;;;;;11.73;9.43;;;;;;;13.97;37.12;99243.97;10584557;28;20035;-74
2021/04/28 08:11:06;;;;;;;10.38;9.48;;;;;;;14.08;38.07;99250.34;10568831;28;20065;-74
2021/04/28 08:16:08;;;;;;;9.90;9.20;;;;;;;14.14;37.03;99247.34;10556729;28;20393;-75
2021/04/28 08:21:10;;;;;;;10.63;9.00;;;;;;;14.18;37.89;99245.38;10575009;28;20591;-75
2021/04/28 08:26:14;;;;;;;10.95;10.02;;;;;;;14.33;37.64;99241.81;10575316;28;20035;-75
2021/04/28 08:31:21;;;;;;;10.98;10.07;;;;;;;14.50;37.61;99238.19;10557360;28;20047;-74
2021/04/28 08:36:23;;;;;;;11.60;10.00;;;;;;;14.40;37.49;99237.03;10589849;28;20134;-74
2021/04/28 08:41:24;;;;;;;12.38;10.73;;;;;;;15.06;37.57;99235.66;10592475;28;20070;-75
2021/04/28 08:46:28;;;;;;;10.30;9.40;;;;;;;15.16;36.85;99225.31;10591213;28;20445;-75
2021/04/28 08:51:29;;;;;;;10.18;9.25;;;;;;;15.18;36.62;99231.34;10592098;28;20044;-76
2021/04/28 08:56:33;;;;;;;10.82;9.57;;;;;;;15.23;36.30;99229.25;10592506;28;20043;-75
2021/04/28 09:01:37;;;;;;;11.88;10.10;;;;;;;15.32;36.55;99223.41;10591530;28;20039;-75
2021/04/28 09:06:38;;;;;;;10.65;9.75;;;;;;;15.44;35.50;99222.59;10590492;28;20046;-73
2021/04/28 09:11:41;;;;;;;11.27;10.07;;;;;;;15.42;36.18;99231.59;10590840;28;20063;-74
2021/04/28 09:16:45;;;;;;;12.23;9.40;;;;;;;15.98;36.92;99225.28;10592126;28;20040;-75
2021/04/28 09:22:14;;;;;;;10.70;9.70;;;;;;;15.92;35.09;99216.88;10591872;28;20408;-75
2021/04/28 09:27:35;;;;;;;;;;;;;;;16.07;35.95;99218.47;10591862;28;20381;-75
2021/04/28 09:33:02;;;;;;;13.27;8.82;;;;;;;16.23;36.35;99207.69;10556043;28;19920;-74
2021/04/28 09:38:04;;;;;;;10.00;9.18;;;;;;;16.35;35.16;99209.50;10545967;28;20072;-75
2021/04/28 09:43:06;;;;;;;11.10;9.57;;;;;;;16.12;34.99;99196.03;10548333;28;20452;-75
2021/04/28 09:48:26;;;;;;;9.93;9.13;;;;;;;16.54;35.08;99196.66;10528793;28;20130;-74
2021/04/28 09:53:28;;;;;;;9.90;9.00;;;;;;;17.52;35.82;99189.66;10548335;28;20044;-75
2021/04/28 09:58:52;;;;;;;10.57;9.63;;;;;;;17.62;33.61;99187.19;10565646;28;20042;-74
2021/04/28 10:03:54;;;;;;;9.85;8.95;;;;;;;16.93;35.24;99181.56;10570901;28;20537;-74
2021/04/28 10:08:56;;;;;;;10.18;9.27;;;;;;;17.02;34.12;99182.72;10588743;28;20043;-75
2021/04/28 10:13:58;;;;;;;9.55;8.75;;;;;;;17.65;33.87;99179.81;10566595;28;20464;-74
2021/04/28 10:18:59;;;;;;;9.88;9.07;;;;;;;17.97;34.52;99173.06;10556896;28;20036;-74
2021/04/28 10:24:01;;;;;;;10.82;9.85;;;;;;;17.57;34.49;99170.72;10584422;28;20042;-74
2021/04/28 10:29:06;;;;;;;10.02;9.05;;;;;;;18.15;34.07;99164.56;10568854;28;20043;-75
2021/04/28 10:34:07;;;;;;;8.85;7.97;;;;;;;18.29;33.57;99160.84;10589928;28;20111;-75
2021/04/28 10:39:20;;;;;;;9.00;8.20;;;;;;;18.44;33.12;99149.94;10588341;28;20473;-75
2021/04/28 10:44:34;;;;;;;7.70;7.00;;;;;;;17.90;35.44;99159.41;10587887;28;20051;-75
2021/04/28 10:50:05;;;;;;;10.40;9.40;;;;;;;17.80;34.81;99150.44;10569989;28;20063;-76
2021/04/28 10:55:32;;;;;;;8.98;8.07;;;;;;;18.19;34.19;99151.00;10562685;28;20438;-76
2021/04/28 11:00:33;;;;;;;10.00;9.05;;;;;;;17.95;34.85;99146.59;10588997;28;20040;-76
2021/04/28 11:05:34;;;;;;;8.77;7.97;;;;;;;18.54;34.53;99133.13;10586976;28;20449;-76
2021/04/28 11:10:37;;;;;;;9.60;8.65;;;;;;;18.54;32.81;99125.16;10569159;28;20520;-75
2021/04/28 11:15:49;;;;;;;12.48;8.25;;;;;;;18.26;34.52;99120.31;10588591;28;20067;-75
2021/04/28 11:21:12;;;;;;;8.40;7.80;;;;;;;18.21;33.74;99118.00;10603375;22;20500;-70
2021/04/28 11:26:27;;;;;;;8.18;7.47;;;;;;;18.78;32.93;99109.09;10634724;28;20042;-71
2021/04/28 11:31:42;;;;;;;9.55;8.65;;;;;;;17.97;34.21;99102.13;10635019;28;20055;-71
2021/04/28 11:36:54;;;;;;;8.07;7.28;;;;;;;19.00;35.16;99102.03;10636185;28;20039;-71
2021/04/28 11:42:06;;;;;;;8.15;7.45;;;;;;;19.63;32.42;99098.53;10616142;28;20053;-71
2021/04/28 11:47:13;;;;;;;8.25;7.55;;;;;;;18.87;32.16;99099.50;10633192;28;20127;-71
2021/04/28 11:52:16;;;;;;;7.88;6.93;;;;;;;19.11;34.16;99092.16;10639707;27;20088;-71
2021/04/28 11:57:27;;;;;;;7.57;6.78;;;;;;;19.36;33.24;99091.00;10643236;27;20059;-70
2021/04/28 12:02:28;;;;;;;7.00;6.40;;;;;;;19.15;32.88;99082.13;10642456;27;20035;-71
2021/04/28 12:07:31;;;;;;;10.05;5.97;;;;;;;18.92;32.72;99080.50;10641032;27;20039;-69
2021/04/28 12:12:33;;;;;;;6.90;6.18;;;;;;;19.10;33.48;99077.16;10638319;27;20055;-70
2021/04/28 12:17:37;;;;;;;6.88;6.25;;;;;;;18.92;32.04;99075.19;10638789;27;20088;-70
2021/04/28 12:22:40;;;;;;;7.43;6.65;;;;;;;19.34;31.73;99060.97;10638674;27;20074;-69
2021/04/28 12:27:43;;;;;;;6.93;6.22;;;;;;;18.71;32.02;99056.44;10639367;27;20067;-70
2021/04/28 12:32:57;;;;;;;7.97;7.15;;;;;;;19.60;31.11;99049.94;10638819;27;20062;-69
2021/04/28 12:38:11;;;;;;;6.03;5.50;;;;;;;19.69;31.32;99051.84;10638265;27;20480;-70
2021/04/28 12:43:19;;;;;;;7.15;6.45;;;;;;;19.68;29.56;99042.16;10638410;27;20047;-70
2021/04/28 12:48:52;;;;;;;7.03;6.28;;;;;;;19.50;30.26;99043.69;10603792;27;20043;-69
2021/04/28 12:53:54;;;;;;;7.60;5.85;;;;;;;19.30;32.31;99040.91;10637515;27;20496;-70
2021/04/28 12:58:56;;;;;;;6.93;6.22;;;;;;;19.56;30.74;99029.84;10636866;27;20557;-69
2021/04/28 13:03:57;;;;;;;6.68;6.03;;;;;;;19.63;30.38;99025.72;10618072;27;20100;-70
2021/04/28 13:08:58;;;;;;;8.40;6.43;;;;;;;19.07;30.88;99029.47;10601073;27;20046;-70
2021/04/28 13:14:01;;;;;;;6.85;5.75;;;;;;;19.58;29.88;99028.75;10619212;27;20100;-70
2021/04/28 13:19:14;;;;;;;6.72;6.13;;;;;;;19.62;29.91;99021.38;10618591;27;20047;-71
2021/04/28 13:24:26;;;;;;;9.27;5.57;;;;;;;19.38;29.28;99013.59;10619196;27;20067;-71
2021/04/28 13:29:56;;;;;;;6.63;6.13;;;;;;;19.38;30.61;99002.94;10638248;27;20038;-70
2021/04/28 13:35:23;;;;;;;7.60;6.90;;;;;;;18.93;30.28;99003.13;10639225;27;20043;-70
2021/04/28 13:40:33;;;;;;;6.45;5.82;;;;;;;18.86;30.70;98994.81;10639019;27;20043;-70
2021/04/28 13:45:35;;;;;;;6.93;6.22;;;;;;;18.89;31.04;98989.22;10618783;27;20043;-70
2021/04/28 13:50:37;;;;;;;12.75;7.05;;;;;;;18.61;30.80;98990.63;10618868;27;20100;-71
2021/04/28 13:55:39;;;;;;;6.47;5.88;;;;;;;18.48;31.10;98984.59;10635205;27;20100;-70
2021/04/28 14:00:40;;;;;;;6.75;6.15;;;;;;;18.45;31.79;98981.34;10633341;27;20054;-70
2021/04/28 14:05:41;;;;;;;7.85;7.00;;;;;;;18.51;30.75;98976.38;10634145;27;20446;-70
2021/04/28 14:10:42;;;;;;;10.73;6.82;;;;;;;18.14;31.69;98981.97;10599435;27;20075;-70
2021/04/28 14:15:44;;;;;;;6.82;6.20;;;;;;;18.30;31.22;98967.47;10634997;27;20080;-69
2021/04/28 14:20:45;;;;;;;7.15;5.90;;;;;;;18.46;32.56;98969.72;10636035;27;20050;-69
2021/04/28 14:25:46;;;;;;;6.55;6.05;;;;;;;18.52;31.38;98966.59;10599131;27;20051;-69
2021/04/28 14:30:47;;;;;;;6.90;6.30;;;;;;;18.48;30.64;98958.00;10634243;27;20045;-71
2021/04/28 14:35:50;;;;;;;8.38;6.95;;;;;;;18.57;30.35;98962.56;10616773;27;20054;-70
2021/04/28 14:40:51;;;;;;;6.80;6.20;;;;;;;18.40;30.72;98957.78;10615865;27;20092;-70
2021/04/28 14:45:55;;;;;;;6.50;5.43;;;;;;;18.45;30.56;98952.91;10615292;27;20167;-68
2021/04/28 14:51:01;;;;;;;6.80;6.15;;;;;;;18.27;30.39;98947.28;10613972;27;20050;-69
2021/04/28 14:56:03;;;;;;;5.75;5.22;;;;;;;18.44;29.74;98953.88;10616462;27;20046;-69
2021/04/28 15:01:05;;;;;;;6.00;4.97;;;;;;;18.36;30.11;98951.00;10633732;27;20407;-69
2021/04/28 15:06:06;;;;;;;5.85;5.40;;;;;;;18.48;29.37;98939.38;10634086;27;20039;-69
2021/04/28 15:11:09;;;;;;;5.47;5.07;;;;;;;18.66;29.59;98937.00;10615139;27;20047;-69
2021/04/28 15:16:11;;;;;;;4.65;4.20;;;;;;;18.62;28.06;98939.06;10615673;27;20364;-71
2021/04/28 15:21:12;;;;;;;5.68;5.05;;;;;;;18.41;28.85;98928.38;10612675;27;20044;-71
2021/04/28 15:26:13;;;;;;;10.73;5.95;;;;;;;18.28;28.65;98916.19;10631066;27;20508;-71
2021/04/28 15:31:15;;;;;;;5.63;5.13;;;;;;;18.31;29.69;98922.13;10631324;28;20065;-69
2021/04/28 15:36:16;;;;;;;6.63;6.10;;;;;;;18.55;29.29;98918.41;10613918;28;20043;-70
2021/04/28 15:41:19;;;;;;;6.30;5.40;;;;;;;18.52;29.48;98913.34;10630711;28;20095;-70
2021/04/28 15:46:20;;;;;;;6.18;5.68;;;;;;;18.36;29.10;98913.75;10608557;28;20456;-70
2021/04/28 15:51:22;;;;;;;7.00;6.35;;;;;;;18.55;28.43;98908.63;10591527;28;20043;-71
2021/04/28 15:56:23;;;;;;;5.22;4.72;;;;;;;18.20;29.14;98903.53;10641737;27;20047;-71
2021/04/28 16:01:25;;;;;;;9.18;5.20;;;;;;;18.11;29.45;98894.50;10633042;27;20042;-71
2021/04/28 16:06:26;;;;;;;6.15;5.53;;;;;;;18.09;29.36;98895.56;10666229;27;20035;-70
2021/04/28 16:11:27;;;;;;;6.57;6.07;;;;;;;18.23;29.39;98887.31;10668998;27;20050;-71
2021/04/28 16:16:29;;;;;;;8.20;7.50;;;;;;;17.97;29.82;98877.94;10650387;27;20554;-73
2021/04/28 16:21:31;;;;;;;7.20;6.57;;;;;;;17.78;29.95;98886.53;10669201;27;20042;-71
2021/04/28 16:26:32;;;;;;;8.45;6.10;;;;;;;18.09;29.16;98874.28;10669943;27;20037;-71
2021/04/28 16:31:33;;;;;;;7.28;6.68;;;;;;;17.87;29.30;98870.69;10652664;27;20050;-71
2021/04/28 16:36:35;;;;;;;6.68;6.10;;;;;;;17.88;28.87;98880.41;10609894;27;20049;-72
2021/04/28 16:41:36;;;;;;;6.18;5.57;;;;;;;17.86;28.53;98873.50;10640072;27;20035;-72
2021/04/28 16:46:38;;;;;;;6.95;6.38;;;;;;;17.84;28.39;98868.31;10676981;27;20035;-71
2021/04/28 16:51:40;;;;;;;6.07;5.53;;;;;;;17.57;28.20;98878.44;10639555;27;20599;-72
2021/04/28 16:56:41;;;;;;;8.32;5.63;;;;;;;17.54;28.05;98879.53;10615912;27;20047;-72
2021/04/28 17:01:43;;;;;;;5.72;5.22;;;;;;;17.36;28.22;98881.81;10614765;27;20072;-72
2021/04/28 17:06:44;;;;;;;6.20;5.70;;;;;;;17.11;28.55;98882.88;10619679;27;20035;-72
2021/04/28 17:11:46;;;;;;;5.35;4.75;;;;;;;17.37;28.65;98878.19;10577663;27;20044;-71
2021/04/28 17:16:48;;;;;;;5.43;4.93;;;;;;;16.87;28.67;98880.28;10623698;27;20426;-70
2021/04/28 17:22:09;;;;;;;4.90;4.53;;;;;;;16.91;27.99;98867.63;10596050;22;20052;-72
2021/04/28 17:27:10;;;;;;;5.85;4.78;;;;;;;17.31;27.52;98869.84;10529318;28;20123;-73
2021/04/28 17:32:23;;;;;;;4.85;4.20;;;;;;;17.07;29.05;98868.13;10531210;28;20464;-73
2021/04/28 17:37:25;;;;;;;4.85;4.45;;;;;;;16.55;29.79;98865.91;10530220;28;20400;-73
2021/04/28 17:42:26;;;;;;;5.65;4.47;;;;;;;16.71;29.19;98865.59;10549323;28;20048;-71
2021/04/28 17:47:28;;;;;;;5.22;4.72;;;;;;;16.45;30.15;98871.06;10546064;28;20044;-71
2021/04/28 17:52:29;;;;;;;7.53;4.80;;;;;;;16.20;30.00;98881.75;10547340;28;20044;-71
2021/04/28 17:57:31;;;;;;;5.30;4.00;;;;;;;15.97;30.48;98878.97;10547901;28;20040;-72
2021/04/28 18:02:32;;;;;;;6.03;4.57;;;;;;;15.97;30.50;98875.50;10528578;28;20075;-71
2021/04/28 18:07:34;;;;;;;4.60;4.20;;;;;;;15.80;30.39;98880.19;10545615;28;20075;-72
2021/04/28 18:12:35;;;;;;;6.35;5.78;;;;;;;15.61;30.98;98882.44;10526790;28;20066;-72
2021/04/28 18:17:39;;;;;;;5.90;4.80;;;;;;;15.60;31.12;98881.59;10527196;28;20028;-71
2021/04/28 18:22:42;;;;;;;5.07;4.55;;;;;;;15.44;31.27;98883.63;10545880;28;20056;-72
2021/04/28 18:27:44;;;;;;;4.78;4.15;;;;;;;15.19;32.66;98886.28;10546114;28;20040;-74
2021/04/28 18:32:45;;;;;;;4.32;3.92;;;;;;;14.97;33.63;98889.56;10546565;28;20082;-76
2021/04/28 18:37:47;;;;;;;5.03;3.97;;;;;;;14.67;35.23;98887.19;10545426;28;20040;-74
2021/04/28 18:42:49;;;;;;;4.80;4.18;;;;;;;14.60;37.73;98889.38;10528692;28;20049;-74
2021/04/28 18:47:51;;;;;;;6.47;4.75;;;;;;;14.46;38.41;98895.53;10503873;28;20090;-74
2021/04/28 18:52:54;;;;;;;4.60;3.80;;;;;;;13.88;38.56;98908.06;10504576;28;20079;-75
2021/04/28 18:57:55;;;;;;;7.05;4.72;;;;;;;13.95;38.55;98899.78;10503596;28;20057;-74
2021/04/28 19:02:57;;;;;;;7.72;6.07;;;;;;;13.96;37.41;98904.13;10470326;28;20083;-75
2021/04/28 19:08:00;;;;;;;6.13;5.50;;;;;;;13.58;38.42;98913.47;10503686;28;20063;-75
2021/04/28 19:13:02;;;;;;;9.50;5.78;;;;;;;13.43;39.08;98914.44;10503708;28;20086;-76
2021/04/28 19:18:04;;;;;;;5.43;4.90;;;;;;;12.97;40.45;98913.66;10486133;28;20040;-74
2021/04/28 19:23:06;;;;;;;5.57;5.13;;;;;;;12.68;40.56;98913.59;10485602;28;20044;-75
2021/04/28 19:28:08;;;;;;;10.60;6.50;;;;;;;12.75;41.85;98909.69;10484757;28;20140;-75
2021/04/28 19:33:09;;;;;;;7.35;6.13;;;;;;;13.07;41.52;98920.97;10486087;28;20049;-74
2021/04/28 19:38:10;;;;;;;10.20;7.00;;;;;;;12.63;42.27;98924.41;10503914;28;20047;-76
2021/04/28 19:43:12;;;;;;;17.33;11.07;;;;;;;12.64;42.65;98920.00;10504017;28;20044;-75
2021/04/28 19:48:14;;;;;;;11.35;8.00;;;;;;;12.30;42.95;98923.69;10472511;28;20056;-74
2021/04/28 19:53:15;;;;;;;8.35;7.25;;;;;;;11.94;43.56;98930.09;10504720;28;20062;-75
2021/04/28 19:58:16;;;;;;;8.52;7.70;;;;;;;11.97;44.75;98913.28;10502094;28;20040;-76
2021/04/28 20:03:20;;;;;;;8.20;7.40;;;;;;;12.00;44.89;98916.59;10502178;28;20098;-75
2021/04/28 20:08:22;;;;;;;7.95;7.22;;;;;;;11.99;45.79;98909.59;10502683;28;20095;-75
2021/04/28 20:13:23;;;;;;;8.32;7.63;;;;;;;11.67;45.40;98908.72;10506388;28;20044;-75
2021/04/28 20:18:25;;;;;;;9.35;8.48;;;;;;;11.45;45.94;98897.66;10491009;28;20071;-74
2021/04/28 20:23:27;;;;;;;8.52;7.22;;;;;;;11.68;45.99;98904.28;10509090;28;20045;-74
2021/04/28 20:28:28;;;;;;;8.88;8.07;;;;;;;11.88;45.65;98885.66;10508758;28;20078;-73
2021/04/28 20:33:29;;;;;;;9.70;7.28;;;;;;;11.54;47.33;98884.00;10490590;28;20044;-75
2021/04/28 20:38:32;;;;;;;8.35;7.55;;;;;;;11.33;47.94;98878.09;10508612;28;20040;-74
2021/04/28 20:43:33;;;;;;;11.02;7.63;;;;;;;11.18;48.17;98874.50;10507310;28;20056;-75
2021/04/28 20:48:34;;;;;;;9.45;8.57;;;;;;;11.05;48.62;98870.81;10490577;28;20440;-74
2021/04/28 20:53:35;;;;;;;9.40;8.50;;;;;;;11.22;47.23;98869.94;10489214;28;20386;-75
2021/04/28 20:58:37;;;;;;;8.77;7.88;;;;;;;11.07;48.36;98864.56;10489278;28;20154;-75
2021/04/28 21:03:38;;;;;;;8.85;8.05;;;;;;;10.77;49.49;98863.50;10507881;28;20447;-74
2021/04/28 21:08:39;;;;;;;8.73;7.30;;;;;;;10.57;49.63;98861.88;10506460;28;20072;-74
2021/04/28 21:13:40;;;;;;;8.35;7.60;;;;;;;10.77;49.15;98861.72;10488497;28;20041;-75
2021/04/28 21:18:42;;;;;;;10.55;7.15;;;;;;;10.70;48.54;98851.59;10487547;28;20049;-74
2021/04/28 21:23:43;;;;;;;7.68;6.93;;;;;;;10.40;48.94;98849.56;10504559;28;20482;-74
2021/04/28 21:28:44;;;;;;;7.20;6.60;;;;;;;10.39;48.68;98854.91;10487425;28;20482;-73
2021/04/28 21:33:46;;;;;;;7.30;6.60;;;;;;;10.15;50.00;98849.09;10487402;28;20040;-74
2021/04/28 21:38:47;;;;;;;11.95;7.28;;;;;;;10.15;50.96;98843.81;10487164;28;20094;-74
2021/04/28 21:43:48;;;;;;;8.88;6.90;;;;;;;10.19;51.24;98837.50;10504768;28;20044;-73
2021/04/28 21:48:49;;;;;;;9.90;6.72;;;;;;;10.09;51.88;98839.72;10504555;28;20044;-74
2021/04/28 21:53:55;;;;;;;7.18;6.43;;;;;;;10.07;52.68;98831.06;10486499;28;20051;-73
2021/04/28 21:58:57;;;;;;;7.07;6.38;;;;;;;9.91;52.57;98838.81;10503537;28;20086;-73
2021/04/28 22:03:58;;;;;;;7.60;6.97;;;;;;;9.76;52.08;98837.78;10503989;28;20041;-74
2021/04/28 22:09:00;;;;;;;7.13;6.53;;;;;;;9.89;52.26;98831.97;10503455;28;20051;-74
2021/04/28 22:14:02;;;;;;;11.93;7.30;;;;;;;10.17;53.37;98820.94;10503300;28;20048;-74
2021/04/28 22:19:04;;;;;;;7.78;7.07;;;;;;;10.03;53.29;98824.25;10486655;28;20064;-73
2021/04/28 22:24:07;;;;;;;9.00;7.82;;;;;;;10.09;54.05;98814.31;10486239;28;20123;-73
2021/04/28 22:29:08;;;;;;;8.38;7.50;;;;;;;9.96;54.08;98821.09;10503470;28;20067;-74
2021/04/28 22:34:10;;;;;;;7.60;6.90;;;;;;;10.04;53.42;98813.66;10502212;28;20079;-74
2021/04/28 22:39:11;;;;;;;8.00;7.13;;;;;;;10.37;53.35;98802.47;10484296;28;20494;-74
2021/04/28 22:44:12;;;;;;;7.78;6.78;;;;;;;10.47;53.34;98814.19;10483932;28;20490;-74
2021/04/28 22:49:14;;;;;;;6.90;6.20;;;;;;;10.61;52.95;98809.09;10486571;28;20050;-74
2021/04/28 22:54:16;;;;;;;7.80;7.20;;;;;;;10.48;53.40;98813.28;10502381;28;20048;-74
2021/04/28 22:59:17;;;;;;;7.07;6.38;;;;;;;10.55;53.64;98806.78;10503034;28;20115;-73
2021/04/28 23:04:18;;;;;;;6.40;5.80;;;;;;;10.65;53.58;98811.56;10502468;28;20115;-73
2021/04/28 23:09:19;;;;;;;7.70;6.35;;;;;;;10.68;53.77;98808.78;10484593;28;20044;-75
2021/04/28 23:14:21;;;;;;;9.25;6.80;;;;;;;10.66;53.72;98808.00;10501861;28;20051;-73
2021/04/28 23:19:22;;;;;;;7.63;6.82;;;;;;;10.72;53.54;98799.81;10484538;28;20103;-73
2021/04/28 23:24:23;;;;;;;6.60;5.70;;;;;;;10.65;54.16;98796.66;10548842;23;20071;-71
2021/04/28 23:29:24;;;;;;;9.32;6.10;;;;;;;10.60;54.16;98796.88;10523336;28;20119;-71
2021/04/28 23:34:26;;;;;;;6.57;5.97;;;;;;;10.63;54.51;98790.63;10524232;28;20055;-71
2021/04/28 23:39:27;;;;;;;7.10;6.45;;;;;;;10.51;54.22;98786.84;10541898;28;20070;-71